createdAt,value
2023-05-10T08:53:01.324Z,21.08
2023-05-10T08:54:06.498Z,21.09
2023-05-10T08:55:11.718Z,21.08
2023-05-10T08:56:17.176Z,21.1
2023-05-10T08:57:22.344Z,21.07
2023-05-10T08:58:27.523Z,21.09
2023-05-10T08:59:32.743Z,21.1
2023-05-10T09:00:37.983Z,21.1
2023-05-10T09:01:43.355Z,21.11
2023-05-10T09:02:48.539Z,21.1
2023-05-10T09:03:53.933Z,21.1
2023-05-10T09:04:59.330Z,21.1
2023-05-10T09:06:04.888Z,21.09
2023-05-10T09:07:10.092Z,21.1
2023-05-10T09:08:15.245Z,21.08
2023-05-10T09:09:20.433Z,21.1
2023-05-10T09:10:25.599Z,21.09
2023-05-10T09:11:30.928Z,21.11
2023-05-10T09:12:36.100Z,21.11
2023-05-10T09:13:41.361Z,21.11
2023-05-10T09:14:46.653Z,21.11
2023-05-10T09:15:52.125Z,21.1
2023-05-10T09:16:57.436Z,21.12
2023-05-10T09:18:02.838Z,21.12
2023-05-10T09:19:08.289Z,21.11
2023-05-10T09:20:14.134Z,21.13
2023-05-10T09:21:19.342Z,21.12
2023-05-10T09:22:24.569Z,21.13
2023-05-10T09:23:29.773Z,21.13
2023-05-10T09:24:34.940Z,21.13
2023-05-10T09:25:40.167Z,21.13
2023-05-10T09:26:45.340Z,21.12
2023-05-10T09:27:50.502Z,21.12
2023-05-10T09:28:55.695Z,21.14
2023-05-10T09:30:00.935Z,21.14
2023-05-10T09:31:06.167Z,21.14
2023-05-10T09:32:11.709Z,21.15
2023-05-10T09:33:18.732Z,21.16
2023-05-10T09:34:26.680Z,21.15
2023-05-10T09:35:31.871Z,21.14
2023-05-10T09:36:37.064Z,21.14
2023-05-10T09:37:42.540Z,21.15
2023-05-10T09:38:47.716Z,21.14
2023-05-10T09:39:52.938Z,21.15
2023-05-10T09:40:58.109Z,21.17
2023-05-10T09:42:03.283Z,21.17
2023-05-10T09:43:08.557Z,21.17
2023-05-10T09:44:13.759Z,21.15
2023-05-10T09:45:19.086Z,21.18
2023-05-10T09:46:24.437Z,21.17
2023-05-10T09:47:29.864Z,21.18
2023-05-10T09:48:35.115Z,21.18
2023-05-10T09:49:40.293Z,21.18
2023-05-10T09:50:45.530Z,21.18
2023-05-10T09:51:50.729Z,21.16
2023-05-10T09:52:55.897Z,21.17
2023-05-10T09:54:01.068Z,21.19
2023-05-10T09:55:06.235Z,21.19
2023-05-10T09:56:11.408Z,21.17
2023-05-10T09:57:16.572Z,21.19
2023-05-10T09:58:21.785Z,21.17
2023-05-10T09:59:26.976Z,21.18
2023-05-10T10:00:32.276Z,21.2
2023-05-10T10:01:37.496Z,21.19
2023-05-10T10:02:42.917Z,21.2
2023-05-10T10:03:48.242Z,21.21
2023-05-10T10:04:53.442Z,21.21
2023-05-10T10:05:58.764Z,21.21
2023-05-10T10:07:03.961Z,21.21
2023-05-10T10:08:09.312Z,21.19
2023-05-10T10:09:14.488Z,21.21
2023-05-10T10:10:19.716Z,21.22
2023-05-10T10:11:24.856Z,21.22
2023-05-10T10:12:30.045Z,21.23
2023-05-10T10:13:35.213Z,21.21
2023-05-10T10:14:40.369Z,21.22
2023-05-10T10:15:45.617Z,21.22
2023-05-10T10:17:05.441Z,21.23
2023-05-10T10:18:13.163Z,21.22
2023-05-10T10:19:18.385Z,21.24
2023-05-10T10:20:23.571Z,21.24
2023-05-10T10:21:29.252Z,21.25
2023-05-10T10:22:34.454Z,21.24
2023-05-10T10:23:39.612Z,21.25
2023-05-10T10:24:44.815Z,21.24
2023-05-10T10:25:50.005Z,21.26
2023-05-10T10:26:55.204Z,21.26
2023-05-10T10:28:00.388Z,21.26
2023-05-10T10:29:05.579Z,21.26
2023-05-10T10:30:10.741Z,21.25
2023-05-10T10:31:15.924Z,21.27
2023-05-10T10:32:21.350Z,21.27
2023-05-10T10:33:28.668Z,21.27
2023-05-10T10:34:34.224Z,21.27
2023-05-10T10:35:39.395Z,21.27
2023-05-10T10:36:44.579Z,21.26
2023-05-10T10:37:49.888Z,21.28
2023-05-10T10:38:55.366Z,21.27
2023-05-10T10:40:00.513Z,21.28
2023-05-10T10:41:05.770Z,21.27
2023-05-10T10:42:10.949Z,21.29
2023-05-10T10:43:16.160Z,21.28
2023-05-10T10:44:21.391Z,21.27
2023-05-10T10:45:26.565Z,21.27
2023-05-10T10:46:31.765Z,21.29
2023-05-10T10:47:37.038Z,21.28
2023-05-10T10:48:42.359Z,21.29
2023-05-10T10:49:47.586Z,21.3
2023-05-10T10:50:52.793Z,21.29
2023-05-10T10:51:57.992Z,21.29
2023-05-10T10:53:03.166Z,21.29
2023-05-10T10:54:08.480Z,21.28
2023-05-10T10:55:13.803Z,21.28
2023-05-10T10:56:19.681Z,21.3
2023-05-10T10:57:24.889Z,21.28
2023-05-10T10:58:30.107Z,21.3
2023-05-10T10:59:35.289Z,21.3
2023-05-10T11:00:40.501Z,21.3
2023-05-10T11:01:45.853Z,21.29
2023-05-10T11:02:51.093Z,21.3
2023-05-10T11:03:56.783Z,21.31
2023-05-10T11:05:02.221Z,21.31
2023-05-10T11:06:07.424Z,21.31
2023-05-10T11:07:12.637Z,21.31
2023-05-10T11:08:17.861Z,21.32
2023-05-10T11:09:23.426Z,21.32
2023-05-10T11:10:28.652Z,21.32
2023-05-10T11:11:33.836Z,21.32
2023-05-10T11:12:38.986Z,21.31
2023-05-10T11:13:44.180Z,21.33
2023-05-10T11:14:53.450Z,21.33
2023-05-10T11:15:58.596Z,21.33
2023-05-10T11:17:03.872Z,21.31
2023-05-10T11:18:09.285Z,21.33
2023-05-10T11:19:14.655Z,21.33
2023-05-10T11:20:20.238Z,21.33
2023-05-10T11:21:25.551Z,21.33
2023-05-10T11:22:30.735Z,21.32
2023-05-10T11:23:35.907Z,21.34
2023-05-10T11:24:41.096Z,21.34
2023-05-10T11:25:46.267Z,21.34
2023-05-10T11:26:51.470Z,21.35
2023-05-10T11:27:56.733Z,21.35
2023-05-10T11:29:01.930Z,21.33
2023-05-10T11:30:07.375Z,21.35
2023-05-10T11:31:12.552Z,21.35
2023-05-10T11:32:17.880Z,21.35
2023-05-10T11:33:23.032Z,21.34
2023-05-10T11:34:28.519Z,21.34
2023-05-10T11:35:33.814Z,21.36
2023-05-10T11:36:39.002Z,21.37
2023-05-10T11:37:44.153Z,21.36
2023-05-10T11:38:49.420Z,21.36
2023-05-10T11:39:54.583Z,21.37
2023-05-10T11:40:59.749Z,21.35
2023-05-10T11:42:04.912Z,21.36
2023-05-10T11:43:10.063Z,21.37
2023-05-10T11:44:15.230Z,21.35
2023-05-10T11:45:20.474Z,21.35
2023-05-10T11:46:25.753Z,21.36
2023-05-10T11:47:31.297Z,21.37
2023-05-10T11:48:36.583Z,21.37
2023-05-10T11:49:41.735Z,21.37
2023-05-10T11:50:46.913Z,21.37
2023-05-10T11:51:52.098Z,21.38
2023-05-10T11:52:57.423Z,21.37
2023-05-10T11:54:02.654Z,21.36
2023-05-10T11:55:07.812Z,21.37
2023-05-10T11:56:13.014Z,21.38
2023-05-10T11:57:18.241Z,21.38
2023-05-10T11:58:23.415Z,21.37
2023-05-10T11:59:28.680Z,21.38
2023-05-10T12:00:33.880Z,21.38
2023-05-10T12:01:39.072Z,21.38
2023-05-10T12:02:44.257Z,21.39
2023-05-10T12:03:49.863Z,21.39
2023-05-10T12:04:55.697Z,21.39
2023-05-10T12:06:01.118Z,21.37
2023-05-10T12:07:06.376Z,21.39
2023-05-10T12:08:11.549Z,21.39
2023-05-10T12:09:17.797Z,21.4
2023-05-10T12:10:46.798Z,21.39
2023-05-10T12:11:51.940Z,21.38
2023-05-10T12:12:57.143Z,21.4
2023-05-10T12:14:02.302Z,21.38
2023-05-10T12:15:07.487Z,21.38
2023-05-10T12:16:12.691Z,21.39
2023-05-10T12:17:18.063Z,21.39
2023-05-10T12:18:23.313Z,21.28
2023-05-10T12:19:28.603Z,21.39
2023-05-10T12:20:33.756Z,21.41
2023-05-10T12:21:38.917Z,21.4
2023-05-10T12:22:44.175Z,21.42
2023-05-10T12:23:49.350Z,21.42
2023-05-10T12:24:54.507Z,21.42
2023-05-10T12:25:59.792Z,21.42
2023-05-10T12:27:04.992Z,21.28
2023-05-10T12:28:10.192Z,21.42
2023-05-10T12:29:15.403Z,21.42
2023-05-10T12:30:20.690Z,21.41
2023-05-10T12:31:25.927Z,21.42
2023-05-10T12:32:31.304Z,21.41
2023-05-10T12:33:36.566Z,21.43
2023-05-10T12:34:41.768Z,21.43
2023-05-10T12:35:46.970Z,21.44
2023-05-10T12:36:52.156Z,21.43
2023-05-10T12:37:57.349Z,21.45
2023-05-10T12:39:02.528Z,21.44
2023-05-10T12:40:07.729Z,21.44
2023-05-10T12:41:12.962Z,21.46
2023-05-10T12:42:18.394Z,21.45
2023-05-10T12:43:23.555Z,21.46
2023-05-10T12:44:28.707Z,21.45
2023-05-10T12:45:33.953Z,21.47
2023-05-10T12:46:39.243Z,21.47
2023-05-10T12:47:44.537Z,21.48
2023-05-10T12:48:51.763Z,21.46
2023-05-10T12:50:12.589Z,21.48
2023-05-10T12:51:18.394Z,21.49
2023-05-10T12:52:23.875Z,21.49
2023-05-10T12:53:29.026Z,21.47
2023-05-10T12:54:34.236Z,21.5
2023-05-10T12:55:39.425Z,21.5
2023-05-10T12:56:44.889Z,21.5
2023-05-10T12:57:50.096Z,21.5
2023-05-10T12:58:55.288Z,21.51
2023-05-10T13:00:00.458Z,21.51
2023-05-10T13:01:05.849Z,21.5
2023-05-10T13:02:11.285Z,21.51
2023-05-10T13:03:16.546Z,21.51
2023-05-10T13:04:21.781Z,21.5
2023-05-10T13:05:27.191Z,21.53
2023-05-10T13:06:32.396Z,21.51
2023-05-10T13:07:37.608Z,21.52
2023-05-10T13:08:42.798Z,21.53
2023-05-10T13:09:47.962Z,21.53
2023-05-10T13:10:53.149Z,21.53
2023-05-10T13:11:58.364Z,21.52
2023-05-10T13:13:03.585Z,21.53
2023-05-10T13:14:08.746Z,21.54
2023-05-10T13:15:13.924Z,21.53
2023-05-10T13:16:19.151Z,21.55
2023-05-10T13:17:24.475Z,21.55
2023-05-10T13:18:29.770Z,21.56
2023-05-10T13:19:35.049Z,21.55
2023-05-10T13:20:40.252Z,21.57
2023-05-10T13:21:45.509Z,21.55
2023-05-10T13:22:52.189Z,21.57
2023-05-10T13:23:57.488Z,21.58
2023-05-10T13:25:02.681Z,21.58
2023-05-10T13:26:07.856Z,21.58
2023-05-10T13:27:13.050Z,21.59
2023-05-10T13:28:18.214Z,21.57
2023-05-10T13:29:23.440Z,21.59
2023-05-10T13:30:28.812Z,21.57
2023-05-10T13:31:34.129Z,21.59
2023-05-10T13:32:39.636Z,21.59
2023-05-10T13:33:45.050Z,21.59
2023-05-10T13:34:50.279Z,21.59
2023-05-10T13:35:55.880Z,21.6
2023-05-10T13:37:01.227Z,21.59
2023-05-10T13:38:06.446Z,21.58
2023-05-10T13:39:11.809Z,21.6
2023-05-10T13:40:17.248Z,21.59
2023-05-10T13:41:22.957Z,21.6
2023-05-10T13:42:28.488Z,21.6
2023-05-10T13:43:33.787Z,21.6
2023-05-10T13:44:39.718Z,21.6
2023-05-10T13:45:44.926Z,21.6
2023-05-10T13:46:50.200Z,21.6
2023-05-10T13:47:55.706Z,21.59
2023-05-10T13:49:01.130Z,21.6
2023-05-10T13:50:06.349Z,21.6
2023-05-10T13:51:12.122Z,21.61
2023-05-10T13:52:17.382Z,21.6
2023-05-10T13:53:22.635Z,21.61
2023-05-10T13:54:27.823Z,21.59
2023-05-10T13:57:05.803Z,21.6
2023-05-10T13:58:11.201Z,21.6
2023-05-10T13:59:16.488Z,21.46
2023-05-10T14:00:24.661Z,21.56
2023-05-10T14:01:30.269Z,21.6
2023-05-10T14:02:36.214Z,21.6
2023-05-10T14:03:42.267Z,21.61
2023-05-10T14:04:47.986Z,21.6
2023-05-10T14:05:55.920Z,21.59
2023-05-10T14:07:01.338Z,21.6
2023-05-10T14:08:06.661Z,21.59
2023-05-10T14:09:11.927Z,21.6
2023-05-10T14:10:17.285Z,21.61
2023-05-10T14:11:24.449Z,21.43
2023-05-10T14:12:30.132Z,21.6
2023-05-10T14:13:35.518Z,21.59
2023-05-10T14:14:40.849Z,21.6
2023-05-10T14:15:46.236Z,21.6
2023-05-10T14:16:51.715Z,21.6
2023-05-10T14:17:57.137Z,21.6
2023-05-10T14:19:03.186Z,21.59
2023-05-10T14:20:08.958Z,21.6
2023-05-10T14:21:14.270Z,21.61
2023-05-10T14:22:21.576Z,21.61
2023-05-10T14:23:26.940Z,21.61
2023-05-10T14:24:32.501Z,21.6
2023-05-10T14:25:37.750Z,21.59
2023-05-10T14:26:42.973Z,21.61
2023-05-10T14:27:48.169Z,21.61
2023-05-10T14:28:53.408Z,21.62
2023-05-10T14:29:58.750Z,21.6
2023-05-10T14:31:04.108Z,21.62
2023-05-10T14:32:09.392Z,21.62
2023-05-10T14:33:14.869Z,21.63
2023-05-10T14:34:20.083Z,21.62
2023-05-10T14:35:25.640Z,21.62
2023-05-10T14:36:31.037Z,21.63
2023-05-10T14:37:36.258Z,21.63
2023-05-10T14:38:41.456Z,21.63
2023-05-10T14:39:46.750Z,21.64
2023-05-10T14:40:51.932Z,21.64
2023-05-10T14:41:57.172Z,21.65
2023-05-10T14:43:02.432Z,21.65
2023-05-10T14:44:07.623Z,21.65
2023-05-10T14:45:12.807Z,21.66
2023-05-10T14:46:18.344Z,21.63
2023-05-10T14:47:23.813Z,21.64
2023-05-10T14:48:29.107Z,21.64
2023-05-10T14:49:34.270Z,21.65
2023-05-10T14:50:39.548Z,21.65
2023-05-10T14:51:44.742Z,21.67
2023-05-10T14:52:49.999Z,21.66
2023-05-10T14:54:09.004Z,21.65
2023-05-10T14:55:14.408Z,21.66
2023-05-10T14:56:20.337Z,21.68
2023-05-10T14:57:25.600Z,21.67
2023-05-10T14:58:31.615Z,21.69
2023-05-10T14:59:38.528Z,21.67
2023-05-10T15:00:45.157Z,21.69
2023-05-10T15:01:52.138Z,21.68
2023-05-10T15:02:58.889Z,21.68
2023-05-10T15:04:05.846Z,21.7
2023-05-10T15:05:12.587Z,21.7
2023-05-10T15:06:19.599Z,21.69
2023-05-10T15:07:24.913Z,21.69
2023-05-10T15:08:30.259Z,21.71
2023-05-10T15:09:35.609Z,21.7
2023-05-10T15:10:41.057Z,21.7
2023-05-10T15:11:46.543Z,21.73
2023-05-10T15:12:51.900Z,21.73
2023-05-10T15:13:57.161Z,21.72
2023-05-10T15:15:02.414Z,21.73
2023-05-10T15:16:07.713Z,21.74
2023-05-10T15:17:13.303Z,21.73
2023-05-10T15:18:18.890Z,21.75
2023-05-10T15:19:26.197Z,21.75
2023-05-10T15:20:31.423Z,21.76
2023-05-10T15:21:36.660Z,21.76
2023-05-10T15:22:42.025Z,21.77
2023-05-10T15:23:47.332Z,21.77
2023-05-10T15:24:52.555Z,21.76
2023-05-10T15:25:57.775Z,21.75
2023-05-10T15:27:02.946Z,21.78
2023-05-10T15:28:08.158Z,21.78
2023-05-10T15:29:13.360Z,21.76
2023-05-10T15:30:18.575Z,21.78
2023-05-10T15:31:23.857Z,21.76
2023-05-10T15:32:29.226Z,21.78
2023-05-10T15:33:34.538Z,21.77
2023-05-10T15:34:39.819Z,21.79
2023-05-10T15:35:45.169Z,21.79
2023-05-10T15:36:50.371Z,21.79
2023-05-10T15:37:55.533Z,21.79
2023-05-10T15:39:00.752Z,21.8
2023-05-10T15:40:05.962Z,21.8
2023-05-10T15:41:11.160Z,21.79
2023-05-10T15:42:16.323Z,21.81
2023-05-10T15:43:21.512Z,21.81
2023-05-10T15:44:26.687Z,21.82
2023-05-10T15:45:31.921Z,21.81
2023-05-10T15:46:40.434Z,21.82
2023-05-10T15:47:45.883Z,21.82
2023-05-10T15:48:51.302Z,21.82
2023-05-10T15:49:56.507Z,21.82
2023-05-10T15:51:01.708Z,21.8
2023-05-10T15:52:06.878Z,21.82
2023-05-10T15:53:12.085Z,21.83
2023-05-10T15:54:17.303Z,21.82
2023-05-10T15:55:22.760Z,21.81
2023-05-10T15:56:28.027Z,21.83
2023-05-10T15:57:34.428Z,21.82
2023-05-10T15:58:40.960Z,21.82
2023-05-10T15:59:46.151Z,21.84
2023-05-10T16:00:51.388Z,21.79
2023-05-10T16:01:56.805Z,21.82
2023-05-10T16:03:02.323Z,21.84
2023-05-10T16:04:07.892Z,21.84
2023-05-10T16:05:13.106Z,21.84
2023-05-10T16:06:18.706Z,21.84
2023-05-10T16:07:23.969Z,21.82
2023-05-10T16:08:29.158Z,21.84
2023-05-10T16:09:34.345Z,21.84
2023-05-10T16:10:39.571Z,21.82
2023-05-10T16:11:44.824Z,21.83
2023-05-10T16:12:50.028Z,21.83
2023-05-10T16:13:55.216Z,21.85
2023-05-10T16:15:00.626Z,21.86
2023-05-10T16:16:05.872Z,21.85
2023-05-10T16:17:11.584Z,21.87
2023-05-10T16:18:17.255Z,21.87
2023-05-10T16:19:22.811Z,21.88
2023-05-10T16:20:30.925Z,21.87
2023-05-10T16:21:36.158Z,21.89
2023-05-10T16:22:41.390Z,21.89
2023-05-10T16:23:46.697Z,21.9
2023-05-10T16:24:51.955Z,21.91
2023-05-10T16:25:57.169Z,21.9
2023-05-10T16:27:02.387Z,21.92
2023-05-10T16:28:07.579Z,21.92
2023-05-10T16:29:12.794Z,21.93
2023-05-10T16:30:18.017Z,21.91
2023-05-10T16:31:26.694Z,21.91
2023-05-10T16:32:32.343Z,21.91
2023-05-10T16:33:37.664Z,21.92
2023-05-10T16:34:42.896Z,21.94
2023-05-10T16:35:48.180Z,21.92
2023-05-10T16:36:53.370Z,21.94
2023-05-10T16:37:58.626Z,21.95
2023-05-10T16:39:03.837Z,21.95
2023-05-10T16:40:09.081Z,21.95
2023-05-10T16:41:14.349Z,21.94
2023-05-10T16:42:19.579Z,21.95
2023-05-10T16:43:26.063Z,21.94
2023-05-10T16:44:31.410Z,21.96
2023-05-10T16:45:36.663Z,21.95
2023-05-10T16:46:41.990Z,21.97
2023-05-10T16:47:47.512Z,21.96
2023-05-10T16:48:52.867Z,21.97
2023-05-10T16:49:58.054Z,21.97
2023-05-10T16:51:03.321Z,21.97
2023-05-10T16:52:08.547Z,21.97
2023-05-10T16:53:13.770Z,21.97
2023-05-10T16:54:18.986Z,21.96
2023-05-10T16:55:26.277Z,21.97
2023-05-10T16:56:31.690Z,21.98
2023-05-10T16:57:36.931Z,21.97
2023-05-10T16:58:42.157Z,21.98
2023-05-10T16:59:47.337Z,21.98
2023-05-10T17:00:52.560Z,21.97
2023-05-10T17:01:57.913Z,21.99
2023-05-10T17:03:03.341Z,21.97
2023-05-10T17:04:08.960Z,21.99
2023-05-10T17:05:15.819Z,21.99
2023-05-10T17:06:21.952Z,21.99
2023-05-10T17:07:27.359Z,21.99
2023-05-10T17:08:32.904Z,21.99
2023-05-10T17:09:38.322Z,22
2023-05-10T17:10:43.857Z,21.98
2023-05-10T17:11:49.381Z,22
2023-05-10T17:12:54.684Z,21.98
2023-05-10T17:14:00.022Z,21.99
2023-05-10T17:15:05.442Z,22
2023-05-10T17:16:10.954Z,21.99
2023-05-10T17:17:16.399Z,22.01
2023-05-10T17:18:21.637Z,22.01
2023-05-10T17:19:27.115Z,21.99
2023-05-10T17:20:34.221Z,21.99
2023-05-10T17:21:39.564Z,21.99
2023-05-10T17:22:44.853Z,21.99
2023-05-10T17:23:50.334Z,21.99
2023-05-10T17:24:56.078Z,21.98
2023-05-10T17:26:01.749Z,21.99
2023-05-10T17:27:07.200Z,21.99
2023-05-10T17:28:12.504Z,21.99
2023-05-10T17:29:17.862Z,21.97
2023-05-10T17:30:23.241Z,21.99
2023-05-10T17:31:28.518Z,21.99
2023-05-10T17:32:34.073Z,21.99
2023-05-10T17:33:39.499Z,21.99
2023-05-10T17:34:44.917Z,21.99
2023-05-10T17:35:50.455Z,21.98
2023-05-10T17:36:55.768Z,21.99
2023-05-10T17:38:02.098Z,21.97
2023-05-10T17:39:07.484Z,21.97
2023-05-10T17:40:13.012Z,21.99
2023-05-10T17:41:18.381Z,22
2023-05-10T17:42:23.980Z,21.99
2023-05-10T17:43:29.476Z,21.99
2023-05-10T17:44:34.794Z,22
2023-05-10T17:45:40.172Z,22
2023-05-10T17:46:45.869Z,22
2023-05-10T17:47:51.322Z,21.98
2023-05-10T17:48:56.753Z,22
2023-05-10T17:50:02.258Z,22.01
2023-05-10T17:51:07.639Z,22
2023-05-10T17:52:13.141Z,21.99
2023-05-10T17:53:18.622Z,22.01
2023-05-10T17:54:23.830Z,22.01
2023-05-10T17:55:29.036Z,22.01
2023-05-10T17:56:34.280Z,22.01
2023-05-10T17:57:39.536Z,22
2023-05-10T17:58:44.810Z,22
2023-05-10T17:59:50.055Z,22.02
2023-05-10T18:00:55.337Z,22.02
2023-05-10T18:02:00.739Z,22.02
2023-05-10T18:03:06.091Z,22
2023-05-10T18:04:11.583Z,22
2023-05-10T18:05:17.242Z,22.02
2023-05-10T18:06:23.754Z,22.02
2023-05-10T18:07:29.007Z,22.02
2023-05-10T18:08:34.289Z,22.02
2023-05-10T18:09:39.495Z,22.03
2023-05-10T18:10:44.761Z,22.03
2023-05-10T18:11:49.971Z,22.03
2023-05-10T18:12:55.178Z,22.02
2023-05-10T18:14:00.385Z,22.03
2023-05-10T18:15:05.588Z,22.03
2023-05-10T18:16:10.884Z,22.01
2023-05-10T18:17:16.287Z,22.03
2023-05-10T18:18:23.241Z,22.03
2023-05-10T18:19:28.505Z,22.03
2023-05-10T18:20:33.777Z,22.03
2023-05-10T18:21:39.004Z,22.02
2023-05-10T18:22:44.261Z,22.02
2023-05-10T18:23:49.576Z,22.02
2023-05-10T18:24:54.775Z,22.02
2023-05-10T18:26:00.012Z,22.02
2023-05-10T18:27:05.247Z,22.04
2023-05-10T18:28:10.514Z,22.04
2023-05-10T18:29:15.832Z,22.04
2023-05-10T18:30:21.058Z,22.04
2023-05-10T18:31:26.338Z,22.04
2023-05-10T18:32:31.771Z,22.02
2023-05-10T18:33:37.190Z,22.04
2023-05-10T18:34:42.429Z,22.04
2023-05-10T18:35:47.659Z,22.04
2023-05-10T18:36:52.906Z,22.05
2023-05-10T18:37:58.203Z,22.05
2023-05-10T18:39:03.434Z,22.04
2023-05-10T18:40:08.636Z,22.04
2023-05-10T18:41:13.863Z,22.04
2023-05-10T18:42:19.085Z,22.03
2023-05-10T18:43:24.266Z,22.05
2023-05-10T18:44:29.537Z,22.03
2023-05-10T18:45:34.749Z,22.04
2023-05-10T18:46:40.018Z,22.05
2023-05-10T18:47:45.438Z,22.05
2023-05-10T18:48:50.828Z,22.04
2023-05-10T18:49:56.040Z,22.04
2023-05-10T18:51:01.275Z,22.04
2023-05-10T18:52:06.525Z,22.03
2023-05-10T18:53:11.717Z,22.05
2023-05-10T18:54:16.986Z,22.05
2023-05-10T18:55:22.260Z,22.05
2023-05-10T18:56:27.516Z,22.03
2023-05-10T18:57:32.717Z,22.03
2023-05-10T18:58:37.903Z,22.03
2023-05-10T18:59:43.096Z,22.03
2023-05-10T19:00:48.341Z,22.03
2023-05-10T19:01:54.878Z,22.04
2023-05-10T19:03:01.672Z,22.06
2023-05-10T19:04:07.013Z,22.05
2023-05-10T19:05:12.402Z,22.05
2023-05-10T19:06:18.226Z,22.05
2023-05-10T19:07:23.511Z,22.05
2023-05-10T19:08:28.713Z,22.04
2023-05-10T19:09:33.899Z,22.04
2023-05-10T19:10:39.114Z,22.04
2023-05-10T19:11:44.309Z,22.04
2023-05-10T19:12:49.536Z,22.05
2023-05-10T19:13:54.744Z,22.06
2023-05-10T19:14:59.958Z,22.03
2023-05-10T19:16:06.100Z,22.05
2023-05-10T19:17:14.056Z,22.04
2023-05-10T19:18:21.760Z,22.05
2023-05-10T19:19:27.610Z,22.05
2023-05-10T19:20:35.396Z,22.04
2023-05-10T19:21:46.753Z,22.05
2023-05-10T19:23:02.543Z,22.05
2023-05-10T19:24:14.636Z,22.05
2023-05-10T19:25:20.947Z,22.05
2023-05-10T19:26:26.195Z,22.04
2023-05-10T19:27:31.406Z,22.05
2023-05-10T19:28:37.616Z,22.05
2023-05-10T19:29:42.988Z,22.06
2023-05-10T19:30:48.353Z,22.06
2023-05-10T19:31:53.895Z,22.06
2023-05-10T19:32:59.455Z,22.06
2023-05-10T19:34:06.005Z,22.06
2023-05-10T19:35:11.335Z,22.06
2023-05-10T19:36:18.468Z,22.06
2023-05-10T19:37:24.200Z,22.07
2023-05-10T19:38:30.597Z,22.05
2023-05-10T19:39:35.983Z,22.04
2023-05-10T19:40:41.301Z,22.07
2023-05-10T19:41:46.548Z,22.07
2023-05-10T19:42:53.413Z,22.07
2023-05-10T19:43:59.451Z,22.07
2023-05-10T19:45:04.639Z,22.06
2023-05-10T19:46:09.969Z,22.07
2023-05-10T19:47:15.387Z,22.05
2023-05-10T19:48:20.721Z,22.07
2023-05-10T19:49:25.980Z,22.07
2023-05-10T19:50:31.929Z,22.08
2023-05-10T19:51:37.147Z,22.06
2023-05-10T19:52:42.483Z,22.08
2023-05-10T19:53:47.780Z,22.08
2023-05-10T19:54:53.000Z,22.07
2023-05-10T19:55:58.207Z,22.09
2023-05-10T19:57:04.427Z,22.09
2023-05-10T19:58:09.630Z,22.09
2023-05-10T19:59:14.857Z,22.1
2023-05-10T20:00:20.078Z,22.09
2023-05-10T20:01:25.341Z,22.1
2023-05-10T20:02:31.104Z,22.09
2023-05-10T20:03:36.653Z,22.07
2023-05-10T20:04:42.234Z,22.09
2023-05-10T20:05:47.515Z,22.09
2023-05-10T20:06:52.852Z,22.09
2023-05-10T20:07:58.098Z,22.09
2023-05-10T20:09:03.296Z,22.07
2023-05-10T20:10:08.481Z,22.07
2023-05-10T20:11:13.684Z,22.07
2023-05-10T20:12:18.890Z,22.07
2023-05-10T20:13:24.115Z,22.09
2023-05-10T20:14:29.317Z,22.09
2023-05-10T20:15:34.634Z,22.09
2023-05-10T20:16:39.949Z,22.08
2023-05-10T20:17:45.380Z,22.07
2023-05-10T20:18:51.830Z,22.09
2023-05-10T20:20:00.070Z,22.08
2023-05-10T20:21:05.295Z,22.09
2023-05-10T20:22:10.603Z,22.1
2023-05-10T20:23:15.823Z,22.09
2023-05-10T20:24:21.114Z,22.08
2023-05-10T20:25:26.565Z,22.09
2023-05-10T20:26:31.948Z,22.08
2023-05-10T20:27:37.169Z,22.1
2023-05-10T20:28:42.336Z,22.09
2023-05-10T20:29:47.515Z,22.09
2023-05-10T20:30:53.202Z,22.1
2023-05-10T20:31:58.862Z,22.07
2023-05-10T20:33:04.371Z,22.09
2023-05-10T20:34:09.849Z,22.07
2023-05-10T20:35:15.022Z,22.09
2023-05-10T20:36:20.221Z,22.09
2023-05-10T20:37:25.475Z,22.09
2023-05-10T20:38:30.928Z,22.09
2023-05-10T20:39:36.376Z,22.09
2023-05-10T20:40:41.630Z,22.09
2023-05-10T20:41:46.830Z,22.09
2023-05-10T20:42:52.053Z,22.08
2023-05-10T20:43:59.138Z,22.09
2023-05-10T20:45:04.340Z,22.08
2023-05-10T20:46:09.618Z,22.08
2023-05-10T20:47:14.980Z,22.08
2023-05-10T20:48:20.380Z,22.08
2023-05-10T20:49:25.582Z,22.07
2023-05-10T20:50:30.787Z,22.09
2023-05-10T20:51:36.071Z,22.08
2023-05-10T20:52:41.277Z,22.09
2023-05-10T20:53:46.614Z,22.09
2023-05-10T20:54:51.828Z,22.09
2023-05-10T20:55:57.005Z,22.09
2023-05-10T20:57:02.245Z,22.09
2023-05-10T20:58:07.419Z,22.07
2023-05-10T20:59:12.614Z,22.08
2023-05-10T21:00:18.079Z,22.07
2023-05-10T21:01:23.904Z,22.07
2023-05-10T21:02:29.314Z,22.06
2023-05-10T21:03:34.655Z,22.08
2023-05-10T21:04:39.903Z,22.08
2023-05-10T21:05:45.141Z,22.07
2023-05-10T21:06:50.328Z,22.06
2023-05-10T21:07:55.664Z,22.08
2023-05-10T21:09:00.845Z,22.06
2023-05-10T21:10:06.040Z,22.07
2023-05-10T21:11:11.249Z,22.07
2023-05-10T21:12:16.405Z,22.05
2023-05-10T21:13:21.624Z,22.05
2023-05-10T21:14:26.887Z,22.04
2023-05-10T21:15:32.045Z,22.04
2023-05-10T21:16:37.235Z,22.05
2023-05-10T21:17:43.034Z,22.04
2023-05-10T21:18:48.423Z,22.05
2023-05-10T21:19:53.845Z,22.03
2023-05-10T21:20:59.047Z,22.04
2023-05-10T21:22:04.290Z,22.04
2023-05-10T21:23:09.498Z,22.04
2023-05-10T21:24:14.728Z,22.04
2023-05-10T21:25:20.487Z,22.04
2023-05-10T21:26:25.719Z,22.02
2023-05-10T21:27:30.878Z,22.02
2023-05-10T21:28:37.860Z,22.02
2023-05-10T21:29:44.187Z,22.04
2023-05-10T21:30:49.400Z,22.04
2023-05-10T21:31:54.604Z,22.04
2023-05-10T21:33:00.134Z,22.04
2023-05-10T21:34:05.578Z,22.05
2023-05-10T21:35:10.789Z,22.03
2023-05-10T21:36:16.006Z,22.05
2023-05-10T21:37:21.431Z,22.05
2023-05-10T21:38:26.600Z,22.05
2023-05-10T21:39:31.765Z,22.05
2023-05-10T21:40:36.929Z,22.05
2023-05-10T21:41:42.084Z,22.05
2023-05-10T21:42:47.349Z,22.03
2023-05-10T21:43:52.486Z,22.05
2023-05-10T21:44:57.669Z,22.05
2023-05-10T21:46:02.889Z,22.04
2023-05-10T21:47:08.228Z,22.05
2023-05-10T21:48:13.437Z,22.05
2023-05-10T21:49:18.705Z,22.03
2023-05-10T21:50:23.864Z,22.03
2023-05-10T21:51:29.077Z,22.05
2023-05-10T21:52:34.411Z,22.02
2023-05-10T21:53:39.585Z,22.04
2023-05-10T21:54:44.780Z,22.03
2023-05-10T21:55:50.005Z,22.03
2023-05-10T21:56:55.232Z,22.04
2023-05-10T21:58:00.404Z,22.03
2023-05-10T21:59:05.564Z,22.05
2023-05-10T22:00:10.726Z,22.03
2023-05-10T22:01:16.043Z,22.05
2023-05-10T22:02:21.368Z,22.04
2023-05-10T22:03:26.846Z,22.06
2023-05-10T22:04:32.317Z,22.05
2023-05-10T22:05:37.530Z,22.05
2023-05-10T22:06:42.702Z,22.06
2023-05-10T22:07:47.873Z,22.05
2023-05-10T22:08:53.024Z,22.06
2023-05-10T22:09:58.254Z,22.06
2023-05-10T22:11:03.459Z,22.06
2023-05-10T22:12:08.637Z,22.04
2023-05-10T22:13:13.796Z,22.04
2023-05-10T22:14:19.022Z,22.06
2023-05-10T22:15:24.193Z,22.06
2023-05-10T22:16:29.412Z,22.05
2023-05-10T22:17:34.786Z,22.05
2023-05-10T22:18:40.080Z,22.04
2023-05-10T22:19:45.416Z,22.05
2023-05-10T22:20:50.577Z,22.04
2023-05-10T22:21:55.828Z,22.05
2023-05-10T22:23:01.062Z,22.05
2023-05-10T22:24:06.276Z,22.04
2023-05-10T22:25:11.470Z,22.05
2023-05-10T22:26:16.686Z,22.04
2023-05-10T22:27:21.842Z,22.03
2023-05-10T22:28:27.045Z,22.05
2023-05-10T22:29:32.227Z,22.03
2023-05-10T22:30:37.420Z,22.05
2023-05-10T22:31:42.652Z,22.04
2023-05-10T22:32:47.871Z,22.04
2023-05-10T22:33:53.178Z,22.03
2023-05-10T22:34:58.337Z,22.04
2023-05-10T22:36:03.491Z,22.04
2023-05-10T22:37:08.674Z,22.04
2023-05-10T22:38:13.852Z,22.04
2023-05-10T22:39:19.022Z,22.03
2023-05-10T22:40:24.212Z,22.04
2023-05-10T22:41:29.392Z,22.04
2023-05-10T22:42:34.667Z,22.02
2023-05-10T22:43:39.848Z,22.03
2023-05-10T22:44:45.000Z,22.01
2023-05-10T22:45:50.195Z,22.03
2023-05-10T22:46:55.470Z,22.01
2023-05-10T22:48:00.969Z,22.03
2023-05-10T22:49:06.346Z,22.03
2023-05-10T22:50:11.522Z,22.03
2023-05-10T22:51:16.731Z,22.03
2023-05-10T22:52:21.915Z,22.02
2023-05-10T22:53:27.081Z,22.02
2023-05-10T22:54:33.710Z,22.02
2023-05-10T22:55:40.365Z,22.02
2023-05-10T22:56:45.564Z,22.02
2023-05-10T22:57:50.716Z,22.02
2023-05-10T22:58:55.903Z,22
2023-05-10T23:00:01.081Z,22
2023-05-10T23:01:06.250Z,22
2023-05-10T23:02:11.540Z,22.02